Kelso, Washington
Current Conditions -  °F | °C
As of 5:55 AM on Wednesday 26 Nov 2014 (Local Time) from KKLS Reporting Station
Overcast Overcast  
Wind Chill: 55°   Ceiling: 4800
Heat Index: 55°   Visibility: 10mi
Dew Point: 52°   Wind: 8mph
Humidity: 88%   Direction: 130°SE
Pressure: 30.22"   Gusts: NA
Location:  46.14°N, 122.89°W
Report Text: KKLS 261355Z 13007KT 10SM OVC048 13/11 A3022 RMK AO1
Loading
Personal Weather Stations






























Interactive Weather Map New forecast layout! Learn more

10-Day Weather Forecast

Advertisements
Track Severe Weather on mobile